sensor_id;sensor_type;location;lat;lon;timestamp;pressure;altitude;pressure_sealevel;temperature;humidity
52975;BME280;38839;45.186;5.720;2023-04-27T00:01:24;99099.84;;;15.33;50.65
52975;BME280;38839;45.186;5.720;2023-04-27T00:03:49;99095.59;;;15.25;50.56
52975;BME280;38839;45.186;5.720;2023-04-27T00:06:15;99109.56;;;15.27;50.64
52975;BME280;38839;45.186;5.720;2023-04-27T00:08:40;99099.22;;;15.21;50.98
52975;BME280;38839;45.186;5.720;2023-04-27T00:11:06;99092.28;;;15.17;50.82
52975;BME280;38839;45.186;5.720;2023-04-27T00:13:31;99089.78;;;15.13;51.22
52975;BME280;38839;45.186;5.720;2023-04-27T00:15:56;99092.50;;;15.09;51.20
52975;BME280;38839;45.186;5.720;2023-04-27T00:18:24;99089.84;;;15.09;50.92
52975;BME280;38839;45.186;5.720;2023-04-27T00:20:50;99087.25;;;15.08;50.95
52975;BME280;38839;45.186;5.720;2023-04-27T00:23:15;99085.47;;;15.10;50.96
52975;BME280;38839;45.186;5.720;2023-04-27T00:25:41;99081.09;;;15.09;50.79
52975;BME280;38839;45.186;5.720;2023-04-27T00:28:06;99082.94;;;15.05;51.26
52975;BME280;38839;45.186;5.720;2023-04-27T00:30:31;99095.19;;;15.05;51.23
52975;BME280;38839;45.186;5.720;2023-04-27T00:32:57;99087.53;;;14.96;51.27
52975;BME280;38839;45.186;5.720;2023-04-27T00:35:22;99080.75;;;14.85;51.12
52975;BME280;38839;45.186;5.720;2023-04-27T00:37:48;99081.69;;;14.83;51.08
52975;BME280;38839;45.186;5.720;2023-04-27T00:40:13;99069.38;;;14.85;50.90
52975;BME280;38839;45.186;5.720;2023-04-27T00:42:39;99073.13;;;14.75;50.87
52975;BME280;38839;45.186;5.720;2023-04-27T00:45:05;99077.56;;;14.71;51.04
52975;BME280;38839;45.186;5.720;2023-04-27T00:47:31;99070.69;;;14.64;51.12
52975;BME280;38839;45.186;5.720;2023-04-27T00:49:57;99069.69;;;14.69;51.30
52975;BME280;38839;45.186;5.720;2023-04-27T00:52:23;99070.56;;;14.70;51.31
52975;BME280;38839;45.186;5.720;2023-04-27T00:54:50;99073.25;;;14.67;51.25
52975;BME280;38839;45.186;5.720;2023-04-27T00:57:16;99076.84;;;14.63;51.74
52975;BME280;38839;45.186;5.720;2023-04-27T00:59:41;99071.72;;;14.58;52.01
52975;BME280;38839;45.186;5.720;2023-04-27T01:02:08;99069.09;;;14.55;52.33
52975;BME280;38839;45.186;5.720;2023-04-27T01:04:34;99062.16;;;14.53;52.70
52975;BME280;38839;45.186;5.720;2023-04-27T01:07:01;99065.00;;;14.42;53.19
52975;BME280;38839;45.186;5.720;2023-04-27T01:09:27;99074.69;;;14.38;54.04
52975;BME280;38839;45.186;5.720;2023-04-27T01:11:52;99076.47;;;14.36;53.52
52975;BME280;38839;45.186;5.720;2023-04-27T01:14:17;99075.69;;;14.31;53.68
52975;BME280;38839;45.186;5.720;2023-04-27T01:16:43;99076.53;;;14.33;53.73
52975;BME280;38839;45.186;5.720;2023-04-27T01:19:08;99082.72;;;14.31;53.93
52975;BME280;38839;45.186;5.720;2023-04-27T01:21:34;99074.84;;;14.29;54.09
52975;BME280;38839;45.186;5.720;2023-04-27T01:23:59;99074.94;;;14.26;54.12
52975;BME280;38839;45.186;5.720;2023-04-27T01:26:25;99080.19;;;14.26;54.07
52975;BME280;38839;45.186;5.720;2023-04-27T01:28:50;99078.50;;;14.22;54.03
52975;BME280;38839;45.186;5.720;2023-04-27T01:31:16;99078.50;;;14.22;53.81
52975;BME280;38839;45.186;5.720;2023-04-27T01:33:41;99088.31;;;14.12;54.00
52975;BME280;38839;45.186;5.720;2023-04-27T01:36:08;99090.09;;;14.10;54.13
52975;BME280;38839;45.186;5.720;2023-04-27T01:38:34;99078.75;;;14.08;54.37
52975;BME280;38839;45.186;5.720;2023-04-27T01:41:00;99088.59;;;13.97;54.56
52975;BME280;38839;45.186;5.720;2023-04-27T01:43:28;99083.28;;;14.00;54.24
52975;BME280;38839;45.186;5.720;2023-04-27T01:45:55;99084.09;;;14.03;54.56
52975;BME280;38839;45.186;5.720;2023-04-27T01:48:21;99096.31;;;14.04;54.42
52975;BME280;38839;45.186;5.720;2023-04-27T01:50:46;99096.31;;;14.04;54.33
52975;BME280;38839;45.186;5.720;2023-04-27T01:53:12;99094.59;;;14.03;54.30
52975;BME280;38839;45.186;5.720;2023-04-27T01:55:37;99105.09;;;14.03;54.55
52975;BME280;38839;45.186;5.720;2023-04-27T01:58:02;99099.03;;;14.00;55.23
52975;BME280;38839;45.186;5.720;2023-04-27T02:00:28;99105.19;;;13.97;55.66
52975;BME280;38839;45.186;5.720;2023-04-27T02:02:53;99107.00;;;13.92;56.22
52975;BME280;38839;45.186;5.720;2023-04-27T02:05:21;99112.44;;;13.83;56.69
52975;BME280;38839;45.186;5.720;2023-04-27T02:07:47;99116.88;;;13.78;56.96
52975;BME280;38839;45.186;5.720;2023-04-27T02:10:13;99112.56;;;13.74;57.32
52975;BME280;38839;45.186;5.720;2023-04-27T02:12:38;99119.66;;;13.68;57.69
52975;BME280;38839;45.186;5.720;2023-04-27T02:15:04;99119.69;;;13.65;57.73
52975;BME280;38839;45.186;5.720;2023-04-27T02:17:33;99127.56;;;13.65;57.98
52975;BME280;38839;45.186;5.720;2023-04-27T02:19:58;99127.63;;;13.62;58.05
52975;BME280;38839;45.186;5.720;2023-04-27T02:22:23;99131.19;;;13.58;58.45
52975;BME280;38839;45.186;5.720;2023-04-27T02:24:49;99134.72;;;13.56;58.10
52975;BME280;38839;45.186;5.720;2023-04-27T02:27:14;99132.91;;;13.59;58.11
52975;BME280;38839;45.186;5.720;2023-04-27T02:29:39;99134.75;;;13.54;58.05
52975;BME280;38839;45.186;5.720;2023-04-27T02:32:08;99129.69;;;13.42;58.84
52975;BME280;38839;45.186;5.720;2023-04-27T02:34:33;99131.50;;;13.37;58.74
52975;BME280;38839;45.186;5.720;2023-04-27T02:36:59;99134.13;;;13.37;58.65
52975;BME280;38839;45.186;5.720;2023-04-27T02:39:24;99129.81;;;13.33;59.07
52975;BME280;38839;45.186;5.720;2023-04-27T02:41:49;99129.84;;;13.28;58.76
52975;BME280;38839;45.186;5.720;2023-04-27T02:44:15;99135.19;;;13.20;59.03
52975;BME280;38839;45.186;5.720;2023-04-27T02:46:40;99134.31;;;13.23;58.99
52975;BME280;38839;45.186;5.720;2023-04-27T02:49:05;99136.09;;;13.21;59.06
52975;BME280;38839;45.186;5.720;2023-04-27T02:51:31;99136.94;;;13.21;58.71
52975;BME280;38839;45.186;5.720;2023-04-27T02:53:56;99136.16;;;13.15;59.00
52975;BME280;38839;45.186;5.720;2023-04-27T02:56:21;99144.97;;;13.09;58.80
52975;BME280;38839;45.186;5.720;2023-04-27T02:58:47;99138.03;;;13.05;59.24
52975;BME280;38839;45.186;5.720;2023-04-27T03:01:16;99139.75;;;13.06;59.16
52975;BME280;38839;45.186;5.720;2023-04-27T03:03:46;99137.19;;;13.03;59.17
52975;BME280;38839;45.186;5.720;2023-04-27T03:06:12;99135.56;;;12.94;59.33
52975;BME280;38839;45.186;5.720;2023-04-27T03:08:37;99132.97;;;12.91;59.92
52975;BME280;38839;45.186;5.720;2023-04-27T03:11:03;99132.22;;;12.83;59.82
52975;BME280;38839;45.186;5.720;2023-04-27T03:13:28;99134.81;;;12.84;59.92
52975;BME280;38839;45.186;5.720;2023-04-27T03:15:54;99131.28;;;12.88;59.89
52975;BME280;38839;45.186;5.720;2023-04-27T03:18:20;99145.38;;;12.78;60.04
52975;BME280;38839;45.186;5.720;2023-04-27T03:20:45;99135.81;;;12.76;60.33
52975;BME280;38839;45.186;5.720;2023-04-27T03:23:11;99140.28;;;12.67;60.84
52975;BME280;38839;45.186;5.720;2023-04-27T03:25:36;99135.97;;;12.62;61.02
52975;BME280;38839;45.186;5.720;2023-04-27T03:28:02;99145.53;;;12.63;61.07
52975;BME280;38839;45.186;5.720;2023-04-27T03:30:27;99144.66;;;12.64;61.04
52975;BME280;38839;45.186;5.720;2023-04-27T03:32:52;99141.16;;;12.65;60.91
52975;BME280;38839;45.186;5.720;2023-04-27T03:35:18;99140.28;;;12.63;61.17
52975;BME280;38839;45.186;5.720;2023-04-27T03:37:44;99138.59;;;12.59;61.17
52975;BME280;38839;45.186;5.720;2023-04-27T03:40:10;99130.03;;;12.47;61.08
52975;BME280;38839;45.186;5.720;2023-04-27T03:42:36;99134.34;;;12.50;61.17
52975;BME280;38839;45.186;5.720;2023-04-27T03:45:02;99134.41;;;12.45;61.18
52975;BME280;38839;45.186;5.720;2023-04-27T03:47:27;99130.03;;;12.44;61.28
52975;BME280;38839;45.186;5.720;2023-04-27T03:49:53;99133.56;;;12.40;61.49
52975;BME280;38839;45.186;5.720;2023-04-27T03:52:18;99133.50;;;12.46;61.31
52975;BME280;38839;45.186;5.720;2023-04-27T03:54:44;99131.78;;;12.45;61.11
52975;BME280;38839;45.186;5.720;2023-04-27T03:57:09;99138.78;;;12.43;61.31
52975;BME280;38839;45.186;5.720;2023-04-27T03:59:35;99132.72;;;12.38;61.26
52975;BME280;38839;45.186;5.720;2023-04-27T04:02:00;99128.41;;;12.36;61.46
52975;BME280;38839;45.186;5.720;2023-04-27T04:04:27;99129.31;;;12.32;61.41
52975;BME280;38839;45.186;5.720;2023-04-27T04:06:53;99131.13;;;12.25;61.61
52975;BME280;38839;45.186;5.720;2023-04-27T04:09:18;99133.75;;;12.22;61.65
52975;BME280;38839;45.186;5.720;2023-04-27T04:11:44;99126.84;;;12.18;61.52
52975;BME280;38839;45.186;5.720;2023-04-27T04:14:09;99138.19;;;12.17;61.79
52975;BME280;38839;45.186;5.720;2023-04-27T04:16:35;99139.09;;;12.13;61.80
52975;BME280;38839;45.186;5.720;2023-04-27T04:19:00;99149.50;;;12.20;61.26
52975;BME280;38839;45.186;5.720;2023-04-27T04:21:25;99149.50;;;12.16;61.60
52975;BME280;38839;45.186;5.720;2023-04-27T04:23:51;99153.88;;;12.15;61.64
52975;BME280;38839;45.186;5.720;2023-04-27T04:26:16;99149.63;;;12.08;62.17
52975;BME280;38839;45.186;5.720;2023-04-27T04:28:42;99147.00;;;12.05;62.09
52975;BME280;38839;45.186;5.720;2023-04-27T04:31:08;99149.63;;;12.06;62.11
52975;BME280;38839;45.186;5.720;2023-04-27T04:33:33;99154.00;;;12.06;62.13
52975;BME280;38839;45.186;5.720;2023-04-27T04:36:02;99150.53;;;12.01;62.01
52975;BME280;38839;45.186;5.720;2023-04-27T04:38:28;99163.59;;;12.02;62.01
52975;BME280;38839;45.186;5.720;2023-04-27T04:40:53;99157.47;;;12.03;61.97
52975;BME280;38839;45.186;5.720;2023-04-27T04:43:18;99155.78;;;11.99;61.98
52975;BME280;38839;45.186;5.720;2023-04-27T04:45:44;99155.78;;;11.99;62.06
52975;BME280;38839;45.186;5.720;2023-04-27T04:48:13;99169.81;;;11.87;62.37
52975;BME280;38839;45.186;5.720;2023-04-27T04:50:38;99168.91;;;11.87;62.21
52975;BME280;38839;45.186;5.720;2023-04-27T04:53:04;99171.50;;;11.93;62.44
52975;BME280;38839;45.186;5.720;2023-04-27T04:55:29;99172.34;;;11.98;62.00
52975;BME280;38839;45.186;5.720;2023-04-27T04:57:54;99178.44;;;12.00;61.99
52975;BME280;38839;45.186;5.720;2023-04-27T05:00:20;99175.66;;;12.20;61.44
52975;BME280;38839;45.186;5.720;2023-04-27T05:02:46;99176.47;;;12.25;61.21
52975;BME280;38839;45.186;5.720;2023-04-27T05:05:11;99179.81;;;12.38;60.89
52975;BME280;38839;45.186;5.720;2023-04-27T05:07:37;99184.84;;;13.33;58.35
52975;BME280;38839;45.186;5.720;2023-04-27T05:10:02;99173.75;;;15.95;51.44
52975;BME280;38839;45.186;5.720;2023-04-27T05:12:28;99172.44;;;17.40;47.31
52975;BME280;38839;45.186;5.720;2023-04-27T05:14:53;99165.25;;;17.45;46.86
52975;BME280;38839;45.186;5.720;2023-04-27T05:17:19;99181.44;;;15.26;51.25
52975;BME280;38839;45.186;5.720;2023-04-27T05:19:44;99185.00;;;14.82;53.08
52975;BME280;38839;45.186;5.720;2023-04-27T05:22:10;99186.28;;;14.62;53.71
52975;BME280;38839;45.186;5.720;2023-04-27T05:24:35;99190.00;;;16.47;49.12
52975;BME280;38839;45.186;5.720;2023-04-27T05:27:00;99192.72;;;18.73;44.34
52975;BME280;38839;45.186;5.720;2023-04-27T05:29:26;99182.25;;;20.71;40.46
52975;BME280;38839;45.186;5.720;2023-04-27T05:31:51;99182.13;;;21.70;38.19
52975;BME280;38839;45.186;5.720;2023-04-27T05:34:18;99182.19;;;22.23;36.93
52975;BME280;38839;45.186;5.720;2023-04-27T05:36:43;99168.78;;;23.59;34.12
52975;BME280;38839;45.186;5.720;2023-04-27T05:39:11;99171.34;;;24.08;33.41
52975;BME280;38839;45.186;5.720;2023-04-27T05:41:36;99173.34;;;23.89;33.35
52975;BME280;38839;45.186;5.720;2023-04-27T05:44:02;99186.97;;;24.45;32.91
52975;BME280;38839;45.186;5.720;2023-04-27T05:46:27;99183.69;;;22.63;34.58
52975;BME280;38839;45.186;5.720;2023-04-27T05:48:53;99190.69;;;18.29;42.71
52975;BME280;38839;45.186;5.720;2023-04-27T05:51:18;99194.03;;;16.93;46.23
52975;BME280;38839;45.186;5.720;2023-04-27T05:53:43;99197.13;;;16.07;48.28
52975;BME280;38839;45.186;5.720;2023-04-27T05:56:09;99198.25;;;15.58;49.34
52975;BME280;38839;45.186;5.720;2023-04-27T05:58:36;99204.06;;;15.34;49.99
52975;BME280;38839;45.186;5.720;2023-04-27T06:01:01;99201.50;;;14.88;50.77
52975;BME280;38839;45.186;5.720;2023-04-27T06:03:28;99199.84;;;14.35;52.05
52975;BME280;38839;45.186;5.720;2023-04-27T06:05:58;99205.06;;;14.38;52.22
52975;BME280;38839;45.186;5.720;2023-04-27T06:08:24;99210.53;;;14.25;52.51
52975;BME280;38839;45.186;5.720;2023-04-27T06:10:50;99216.88;;;14.11;53.11
52975;BME280;38839;45.186;5.720;2023-04-27T06:13:16;99208.25;;;14.04;52.99
52975;BME280;38839;45.186;5.720;2023-04-27T06:15:41;99223.13;;;14.03;52.92
52975;BME280;38839;45.186;5.720;2023-04-27T06:18:07;99222.41;;;13.92;52.89
52975;BME280;38839;45.186;5.720;2023-04-27T06:20:32;99219.88;;;13.87;52.99
52975;BME280;38839;45.186;5.720;2023-04-27T06:22:59;99226.13;;;13.79;53.25
52975;BME280;38839;45.186;5.720;2023-04-27T06:25:25;99228.75;;;13.80;53.45
52975;BME280;38839;45.186;5.720;2023-04-27T06:27:52;99226.03;;;13.85;53.26
52975;BME280;38839;45.186;5.720;2023-04-27T06:30:18;99225.03;;;13.92;53.48
52975;BME280;38839;45.186;5.720;2023-04-27T06:32:43;99226.59;;;14.04;53.16
52975;BME280;38839;45.186;5.720;2023-04-27T06:35:09;99229.34;;;13.96;53.48
52975;BME280;38839;45.186;5.720;2023-04-27T06:37:35;99231.13;;;13.94;53.61
52975;BME280;38839;45.186;5.720;2023-04-27T06:40:00;99232.84;;;13.97;53.50
52975;BME280;38839;45.186;5.720;2023-04-27T06:42:25;99228.38;;;14.02;53.57
52975;BME280;38839;45.186;5.720;2023-04-27T06:44:54;99237.97;;;14.04;53.62
52975;BME280;38839;45.186;5.720;2023-04-27T06:47:20;99227.38;;;14.11;53.41
52975;BME280;38839;45.186;5.720;2023-04-27T06:49:46;99222.84;;;14.19;53.21
52975;BME280;38839;45.186;5.720;2023-04-27T06:52:12;99223.56;;;14.28;52.95
52975;BME280;38839;45.186;5.720;2023-04-27T06:54:37;99226.94;;;14.37;52.78
52975;BME280;38839;45.186;5.720;2023-04-27T06:57:04;99228.38;;;14.55;52.60
52975;BME280;38839;45.186;5.720;2023-04-27T06:59:30;99220.31;;;14.65;52.30
52975;BME280;38839;45.186;5.720;2023-04-27T07:01:56;99218.28;;;14.81;52.19
52975;BME280;38839;45.186;5.720;2023-04-27T07:04:22;99212.69;;;14.98;52.11
52975;BME280;38839;45.186;5.720;2023-04-27T07:06:47;99212.59;;;15.03;51.87
52975;BME280;38839;45.186;5.720;2023-04-27T07:09:13;99202.16;;;15.00;52.10
52975;BME280;38839;45.186;5.720;2023-04-27T07:11:38;99212.53;;;15.07;52.25
52975;BME280;38839;45.186;5.720;2023-04-27T07:14:04;99203.31;;;15.28;51.91
52975;BME280;38839;45.186;5.720;2023-04-27T07:16:29;99208.81;;;15.18;51.88
52975;BME280;38839;45.186;5.720;2023-04-27T07:18:54;99196.38;;;15.26;51.77
52975;BME280;38839;45.186;5.720;2023-04-27T07:21:20;99193.50;;;15.37;51.81
52975;BME280;38839;45.186;5.720;2023-04-27T07:23:45;99188.09;;;15.43;51.60
52975;BME280;38839;45.186;5.720;2023-04-27T07:26:11;99194.81;;;15.56;50.99
52975;BME280;38839;45.186;5.720;2023-04-27T07:28:37;99194.75;;;15.59;50.28
52975;BME280;38839;45.186;5.720;2023-04-27T07:31:04;99195.00;;;15.87;49.87
52975;BME280;38839;45.186;5.720;2023-04-27T07:33:30;99192.09;;;15.98;49.38
52975;BME280;38839;45.186;5.720;2023-04-27T07:35:56;99197.91;;;16.11;48.82
52975;BME280;38839;45.186;5.720;2023-04-27T07:38:22;99191.25;;;16.32;48.13
52975;BME280;38839;45.186;5.720;2023-04-27T07:40:48;99184.59;;;16.52;47.76
52975;BME280;38839;45.186;5.720;2023-04-27T07:43:14;99182.94;;;16.80;46.91
52975;BME280;38839;45.186;5.720;2023-04-27T07:45:40;99183.91;;;17.09;46.28
52975;BME280;38839;45.186;5.720;2023-04-27T07:48:05;99166.59;;;17.58;44.84
52975;BME280;38839;45.186;5.720;2023-04-27T07:50:31;99173.13;;;18.03;44.05
52975;BME280;38839;45.186;5.720;2023-04-27T07:52:57;99174.50;;;18.40;42.95
52975;BME280;38839;45.186;5.720;2023-04-27T07:55:24;99164.50;;;18.73;41.77
52975;BME280;38839;45.186;5.720;2023-04-27T07:57:51;99168.88;;;18.24;42.60
52975;BME280;38839;45.186;5.720;2023-04-27T08:00:17;99166.38;;;18.46;42.36
52975;BME280;38839;45.186;5.720;2023-04-27T08:02:43;99156.34;;;19.04;41.06
52975;BME280;38839;45.186;5.720;2023-04-27T08:05:08;99152.38;;;19.16;40.31
52975;BME280;38839;45.186;5.720;2023-04-27T08:07:34;99154.22;;;19.14;40.42
52975;BME280;38839;45.186;5.720;2023-04-27T08:09:59;99140.72;;;19.66;39.45
52975;BME280;38839;45.186;5.720;2023-04-27T08:12:25;99146.81;;;19.90;39.40
52975;BME280;38839;45.186;5.720;2023-04-27T08:14:50;99148.03;;;20.24;38.61
52975;BME280;38839;45.186;5.720;2023-04-27T08:17:16;99150.41;;;20.09;38.88
52975;BME280;38839;45.186;5.720;2023-04-27T08:19:42;99149.44;;;20.12;38.36
52975;BME280;38839;45.186;5.720;2023-04-27T08:22:08;99144.69;;;19.78;38.39
52975;BME280;38839;45.186;5.720;2023-04-27T08:24:34;99144.69;;;19.78;38.32
52975;BME280;38839;45.186;5.720;2023-04-27T08:26:59;99143.75;;;19.79;38.05
52975;BME280;38839;45.186;5.720;2023-04-27T08:29:25;99142.19;;;19.51;38.42
52975;BME280;38839;45.186;5.720;2023-04-27T08:31:50;99140.38;;;19.75;38.80
52975;BME280;38839;45.186;5.720;2023-04-27T08:34:16;99139.69;;;20.54;37.87
52975;BME280;38839;45.186;5.720;2023-04-27T08:36:42;99128.84;;;19.98;37.80
52975;BME280;38839;45.186;5.720;2023-04-27T08:39:07;99125.97;;;19.82;38.37
52975;BME280;38839;45.186;5.720;2023-04-27T08:41:33;99121.63;;;20.43;37.53
52975;BME280;38839;45.186;5.720;2023-04-27T08:43:58;99119.84;;;20.23;37.48
52975;BME280;38839;45.186;5.720;2023-04-27T08:46:24;99124.34;;;20.62;36.75
52975;BME280;38839;45.186;5.720;2023-04-27T08:48:53;99124.59;;;22.92;33.46
52975;BME280;38839;45.186;5.720;2023-04-27T08:51:19;99121.88;;;22.07;34.49
52975;BME280;38839;45.186;5.720;2023-04-27T08:53:53;99127.34;;;21.87;34.45
52975;BME280;38839;45.186;5.720;2023-04-27T08:56:19;99125.75;;;21.83;34.64
52975;BME280;38839;45.186;5.720;2023-04-27T08:58:49;99113.28;;;20.92;35.94
52975;BME280;38839;45.186;5.720;2023-04-27T09:01:15;99104.00;;;20.42;36.95
52975;BME280;38839;45.186;5.720;2023-04-27T09:03:41;99108.81;;;20.53;37.12
52975;BME280;38839;45.186;5.720;2023-04-27T09:06:07;99100.78;;;20.94;36.28
52975;BME280;38839;45.186;5.720;2023-04-27T09:08:48;99107.63;;;20.80;36.38
52975;BME280;38839;45.186;5.720;2023-04-27T09:11:15;99109.41;;;20.99;35.65
52975;BME280;38839;45.186;5.720;2023-04-27T09:13:51;99109.38;;;21.37;35.13
52975;BME280;38839;45.186;5.720;2023-04-27T09:16:22;99114.97;;;21.68;34.61
52975;BME280;38839;45.186;5.720;2023-04-27T09:18:47;99115.28;;;21.62;34.49
52975;BME280;38839;45.186;5.720;2023-04-27T09:21:24;99114.13;;;21.85;33.85
52975;BME280;38839;45.186;5.720;2023-04-27T09:23:51;99111.84;;;22.13;33.45
52975;BME280;38839;45.186;5.720;2023-04-27T09:26:21;99104.97;;;22.08;32.89
52975;BME280;38839;45.186;5.720;2023-04-27T09:28:49;99115.44;;;21.94;33.78
52975;BME280;38839;45.186;5.720;2023-04-27T09:31:15;99113.25;;;22.02;33.80
52975;BME280;38839;45.186;5.720;2023-04-27T09:33:42;99112.03;;;22.09;33.20
52975;BME280;38839;45.186;5.720;2023-04-27T09:40:59;99112.44;;;21.48;33.80
52975;BME280;38839;45.186;5.720;2023-04-27T09:43:25;99110.69;;;21.28;34.01
52975;BME280;38839;45.186;5.720;2023-04-27T09:45:54;99117.16;;;21.78;33.57
52975;BME280;38839;45.186;5.720;2023-04-27T09:48:21;99115.88;;;21.50;33.41
52975;BME280;38839;45.186;5.720;2023-04-27T09:50:48;99110.97;;;21.22;33.71
52975;BME280;38839;45.186;5.720;2023-04-27T09:53:16;99119.25;;;21.54;33.47
52975;BME280;38839;45.186;5.720;2023-04-27T10:09:22;99106.56;;;21.95;32.79
52975;BME280;38839;45.186;5.720;2023-04-27T10:11:48;99096.22;;;21.72;32.86
52975;BME280;38839;45.186;5.720;2023-04-27T10:14:19;99092.34;;;22.31;32.22
52975;BME280;38839;45.186;5.720;2023-04-27T10:16:51;99088.44;;;22.03;32.17
52975;BME280;38839;45.186;5.720;2023-04-27T10:19:17;99089.81;;;22.45;31.85
52975;BME280;38839;45.186;5.720;2023-04-27T10:21:57;99077.78;;;22.38;31.33
52975;BME280;38839;45.186;5.720;2023-04-27T10:24:40;99078.97;;;21.98;31.98
52975;BME280;38839;45.186;5.720;2023-04-27T10:27:08;99081.75;;;22.47;31.82
52975;BME280;38839;45.186;5.720;2023-04-27T10:32:10;99072.84;;;22.81;30.74
52975;BME280;38839;45.186;5.720;2023-04-27T10:34:36;99074.19;;;22.39;30.74
52975;BME280;38839;45.186;5.720;2023-04-27T10:37:06;99065.81;;;22.47;30.96
52975;BME280;38839;45.186;5.720;2023-04-27T10:39:38;99073.84;;;22.29;30.81
52975;BME280;38839;45.186;5.720;2023-04-27T10:42:04;99061.34;;;22.47;30.71
52975;BME280;38839;45.186;5.720;2023-04-27T10:44:31;99060.44;;;23.14;30.01
52975;BME280;38839;45.186;5.720;2023-04-27T10:46:59;99063.97;;;22.65;29.90
52975;BME280;38839;45.186;5.720;2023-04-27T10:49:29;99060.91;;;22.88;29.56
52975;BME280;38839;45.186;5.720;2023-04-27T10:51:56;99050.63;;;22.98;29.08
52975;BME280;38839;45.186;5.720;2023-04-27T10:54:25;99050.22;;;23.06;29.35
52975;BME280;38839;45.186;5.720;2023-04-27T10:56:51;99051.56;;;23.29;29.12
52975;BME280;38839;45.186;5.720;2023-04-27T10:59:17;99054.94;;;23.33;28.72
52975;BME280;38839;45.186;5.720;2023-04-27T11:01:47;99048.53;;;23.51;28.86
52975;BME280;38839;45.186;5.720;2023-04-27T11:04:13;99043.69;;;23.74;28.49
52975;BME280;38839;45.186;5.720;2023-04-27T11:06:42;99040.84;;;23.77;28.74
52975;BME280;38839;45.186;5.720;2023-04-27T11:09:08;99044.41;;;23.61;28.82
52975;BME280;38839;45.186;5.720;2023-04-27T11:11:35;99038.72;;;23.67;29.04
52975;BME280;38839;45.186;5.720;2023-04-27T11:14:00;99034.28;;;23.52;29.56
52975;BME280;38839;45.186;5.720;2023-04-27T11:16:27;99034.47;;;23.49;29.47
52975;BME280;38839;45.186;5.720;2023-04-27T11:18:53;99030.00;;;23.49;29.46
52975;BME280;38839;45.186;5.720;2023-04-27T11:21:19;99032.63;;;23.65;29.76
52975;BME280;38839;45.186;5.720;2023-04-27T11:23:45;99024.44;;;23.68;29.54
52975;BME280;38839;45.186;5.720;2023-04-27T11:26:15;99031.28;;;23.73;29.72
52975;BME280;38839;45.186;5.720;2023-04-27T11:29:02;99025.97;;;23.73;29.89
52975;BME280;38839;45.186;5.720;2023-04-27T11:31:43;99021.88;;;23.67;30.18
52975;BME280;38839;45.186;5.720;2023-04-27T11:34:29;99022.72;;;23.67;29.83
52975;BME280;38839;45.186;5.720;2023-04-27T11:37:05;99013.28;;;23.62;30.05
52975;BME280;38839;45.186;5.720;2023-04-27T11:39:36;99013.97;;;23.65;30.22
52975;BME280;38839;45.186;5.720;2023-04-27T11:42:21;99014.03;;;23.34;30.28
52975;BME280;38839;45.186;5.720;2023-04-27T11:44:57;99012.25;;;23.34;30.70
52975;BME280;38839;45.186;5.720;2023-04-27T11:47:27;99018.66;;;23.46;30.52
52975;BME280;38839;45.186;5.720;2023-04-27T11:49:58;99012.97;;;23.52;30.60
52975;BME280;38839;45.186;5.720;2023-04-27T11:52:30;99013.66;;;23.56;30.42
52975;BME280;38839;45.186;5.720;2023-04-27T11:54:56;99011.38;;;23.80;30.72
52975;BME280;38839;45.186;5.720;2023-04-27T11:57:24;99014.38;;;23.89;30.75
52975;BME280;38839;45.186;5.720;2023-04-27T11:59:51;99010.34;;;23.66;31.37
52975;BME280;38839;45.186;5.720;2023-04-27T12:02:19;99005.75;;;23.54;31.97
52975;BME280;38839;45.186;5.720;2023-04-27T12:04:46;99002.16;;;23.55;32.21
52975;BME280;38839;45.186;5.720;2023-04-27T12:07:12;99001.78;;;23.61;32.67
52975;BME280;38839;45.186;5.720;2023-04-27T12:09:38;99001.97;;;23.58;32.62
52975;BME280;38839;45.186;5.720;2023-04-27T12:12:04;98996.81;;;23.55;32.77
52975;BME280;38839;45.186;5.720;2023-04-27T12:14:30;98993.69;;;23.48;32.76
52975;BME280;38839;45.186;5.720;2023-04-27T12:16:56;98994.44;;;23.50;32.87
52975;BME280;38839;45.186;5.720;2023-04-27T12:19:21;98992.44;;;23.54;33.13
52975;BME280;38839;45.186;5.720;2023-04-27T12:21:49;98997.03;;;23.66;32.60
52975;BME280;38839;45.186;5.720;2023-04-27T12:24:15;98992.22;;;23.43;32.63
52975;BME280;38839;45.186;5.720;2023-04-27T12:26:40;98987.88;;;23.56;32.48
52975;BME280;38839;45.186;5.720;2023-04-27T12:29:06;98988.25;;;23.50;32.02
52975;BME280;38839;45.186;5.720;2023-04-27T12:31:31;98995.66;;;23.45;32.32
52975;BME280;38839;45.186;5.720;2023-04-27T12:33:58;98988.63;;;23.58;32.10
52975;BME280;38839;45.186;5.720;2023-04-27T12:36:23;98986.69;;;23.46;32.06
52975;BME280;38839;45.186;5.720;2023-04-27T12:38:49;98988.44;;;23.47;31.86
52975;BME280;38839;45.186;5.720;2023-04-27T12:41:14;98988.50;;;23.45;32.18
52975;BME280;38839;45.186;5.720;2023-04-27T12:43:40;98994.56;;;23.63;31.90
52975;BME280;38839;45.186;5.720;2023-04-27T12:46:06;98987.25;;;23.67;31.85
52975;BME280;38839;45.186;5.720;2023-04-27T12:48:32;98991.03;;;23.33;31.52
52975;BME280;38839;45.186;5.720;2023-04-27T12:50:58;98996.88;;;23.23;31.16
52975;BME280;38839;45.186;5.720;2023-04-27T12:53:23;98999.53;;;23.23;31.28
52975;BME280;38839;45.186;5.720;2023-04-27T12:55:49;98996.06;;;23.07;31.61
52975;BME280;38839;45.186;5.720;2023-04-27T12:58:15;98987.47;;;23.18;31.95
52975;BME280;38839;45.186;5.720;2023-04-27T13:00:40;98992.94;;;23.30;31.89
52975;BME280;38839;45.186;5.720;2023-04-27T13:03:06;98989.31;;;23.32;31.44
52975;BME280;38839;45.186;5.720;2023-04-27T13:05:31;98991.13;;;23.31;31.21
52975;BME280;38839;45.186;5.720;2023-04-27T13:07:57;98987.41;;;23.34;31.24
52975;BME280;38839;45.186;5.720;2023-04-27T13:10:23;98991.44;;;23.41;31.20
52975;BME280;38839;45.186;5.720;2023-04-27T13:12:48;98987.47;;;23.48;30.79
52975;BME280;38839;45.186;5.720;2023-04-27T13:15:14;98988.75;;;23.57;30.51
52975;BME280;38839;45.186;5.720;2023-04-27T13:17:39;98984.84;;;23.62;30.35